createdAt,value
2022-09-06T00:00:44.504Z,100878.50
2022-09-06T00:03:46.666Z,100878.66
2022-09-06T00:06:48.291Z,100881.47
2022-09-06T00:09:49.883Z,100884.25
2022-09-06T00:12:51.759Z,100887.69
2022-09-06T00:15:53.560Z,100890.97
2022-09-06T00:18:55.989Z,100883.75
2022-09-06T00:21:57.678Z,100883.25
2022-09-06T00:24:59.428Z,100886.53
2022-09-06T00:28:03.544Z,100880.78
2022-09-06T00:31:20.688Z,100880.16
2022-09-06T00:34:22.595Z,100879.19
2022-09-06T00:37:24.525Z,100878.75
2022-09-06T00:40:27.389Z,100866.66
2022-09-06T00:43:29.236Z,100862.25
2022-09-06T00:46:32.721Z,100869.66
2022-09-06T00:49:46.151Z,100879.00
2022-09-06T00:52:50.286Z,100875.38
2022-09-06T00:55:53.316Z,100873.75
2022-09-06T00:58:55.076Z,100865.53
2022-09-06T01:01:57.642Z,100862.88
2022-09-06T01:05:00.026Z,100867.53
2022-09-06T01:08:20.861Z,100859.78
2022-09-06T01:11:30.272Z,100858.91
2022-09-06T01:14:50.252Z,100857.94
2022-09-06T01:18:17.020Z,100864.44
2022-09-06T01:21:29.024Z,100869.78
2022-09-06T01:24:55.678Z,100856.84
2022-09-06T01:28:16.081Z,100848.50
2022-09-06T01:31:36.510Z,100841.16
2022-09-06T01:34:47.996Z,100837.13
2022-09-06T01:37:49.919Z,100830.91
2022-09-06T01:40:51.684Z,100839.13
2022-09-06T01:43:54.904Z,100830.47
2022-09-06T01:47:04.088Z,100822.81
2022-09-06T01:50:36.909Z,100820.88
2022-09-06T01:54:17.804Z,100823.47
2022-09-06T01:57:51.792Z,100811.88
2022-09-06T02:01:21.519Z,100808.13
2022-09-06T02:04:30.049Z,100813.84
2022-09-06T02:07:33.901Z,100813.69
2022-09-06T02:10:43.577Z,100817.13
2022-09-06T02:13:52.634Z,100825.66
2022-09-06T02:16:57.716Z,100827.78
2022-09-06T02:20:10.851Z,100834.34
2022-09-06T02:23:13.349Z,100841.03
2022-09-06T02:26:22.046Z,100839.38
2022-09-06T02:29:24.123Z,100833.63
2022-09-06T02:32:27.251Z,100833.13
2022-09-06T02:35:29.440Z,100830.34
2022-09-06T02:38:34.141Z,100822.66
2022-09-06T02:41:36.177Z,100819.38
2022-09-06T02:44:37.899Z,100819.25
2022-09-06T02:47:39.601Z,100819.38
2022-09-06T02:50:41.540Z,100807.13
2022-09-06T02:53:43.345Z,100806.31
2022-09-06T02:56:49.004Z,100807.44
2022-09-06T02:59:53.374Z,100815.28
2022-09-06T03:02:55.949Z,100811.53
2022-09-06T03:05:57.695Z,100820.38
2022-09-06T03:09:00.264Z,100819.19
2022-09-06T03:12:02.047Z,100816.91
2022-09-06T03:15:05.498Z,100806.75
2022-09-06T03:18:07.725Z,100815.53
2022-09-06T03:21:09.879Z,100825.53
2022-09-06T03:24:11.663Z,100829.56
2022-09-06T03:27:13.904Z,100825.78
2022-09-06T03:30:15.779Z,100819.72
2022-09-06T03:33:18.391Z,100819.22
2022-09-06T03:36:20.124Z,100806.63
2022-09-06T03:39:21.836Z,100804.31
2022-09-06T03:42:26.368Z,100805.59
2022-09-06T03:45:28.245Z,100801.03
2022-09-06T03:48:30.228Z,100809.19
2022-09-06T03:51:32.195Z,100811.97
2022-09-06T03:54:34.175Z,100811.28
2022-09-06T03:57:35.853Z,100818.00
2022-09-06T04:00:37.648Z,100824.50
2022-09-06T04:03:39.745Z,100820.41
2022-09-06T04:06:41.849Z,100824.16
2022-09-06T04:09:43.920Z,100818.41
2022-09-06T04:12:45.835Z,100811.00
2022-09-06T04:15:48.129Z,100811.34
2022-09-06T04:18:50.016Z,100802.97
2022-09-06T04:21:51.934Z,100810.31
2022-09-06T04:24:53.961Z,100808.50
2022-09-06T04:27:55.839Z,100811.94
2022-09-06T04:31:04.066Z,100801.16
2022-09-06T04:34:06.794Z,100788.75
2022-09-06T04:37:08.713Z,100797.28
2022-09-06T04:40:10.907Z,100796.97
2022-09-06T04:43:12.722Z,100797.19
2022-09-06T04:46:30.676Z,100789.84
2022-09-06T04:49:32.466Z,100798.22
2022-09-06T04:52:34.253Z,100790.22
2022-09-06T04:55:36.151Z,100782.06
2022-09-06T04:58:38.045Z,100783.91
2022-09-06T05:01:39.922Z,100790.41
2022-09-06T05:04:41.769Z,100797.28
2022-09-06T05:08:14.961Z,100795.63
2022-09-06T05:12:21.132Z,100792.25
2022-09-06T05:15:23.603Z,100799.78
2022-09-06T05:18:25.315Z,100788.69
2022-09-06T05:21:27.124Z,100798.03
2022-09-06T05:24:28.890Z,100795.75
2022-09-06T05:27:30.720Z,100799.19
2022-09-06T05:30:32.552Z,100798.38
2022-09-06T05:33:34.491Z,100784.28
2022-09-06T05:36:36.325Z,100786.75
2022-09-06T05:39:38.107Z,100799.03
2022-09-06T05:42:41.253Z,100800.16
2022-09-06T05:45:43.396Z,100813.06
2022-09-06T05:48:52.120Z,100834.84
2022-09-06T05:51:53.756Z,100859.00
2022-09-06T05:54:55.653Z,100871.41
2022-09-06T05:57:57.293Z,100868.16
2022-09-06T06:01:17.874Z,100844.91
2022-09-06T06:04:21.778Z,100844.41
2022-09-06T06:07:23.844Z,100854.41
2022-09-06T06:10:25.894Z,100853.06
2022-09-06T06:13:30.104Z,100850.66
2022-09-06T06:16:31.925Z,100850.53
2022-09-06T06:19:33.689Z,100855.31
2022-09-06T06:22:35.545Z,100854.84
2022-09-06T06:25:37.320Z,100840.47
2022-09-06T06:28:39.954Z,100835.50
2022-09-06T06:31:42.868Z,100818.34
2022-09-06T06:34:44.706Z,100815.91
2022-09-06T06:37:46.343Z,100843.34
2022-09-06T06:40:48.092Z,100850.16
2022-09-06T06:43:53.924Z,100847.00
2022-09-06T06:46:57.911Z,100854.63
2022-09-06T06:49:59.962Z,100860.66
2022-09-06T06:53:02.796Z,100862.34
2022-09-06T06:56:27.888Z,100852.25
2022-09-06T06:59:30.014Z,100852.81
2022-09-06T07:02:32.105Z,100863.69
2022-09-06T07:09:02.351Z,100865.94
2022-09-06T07:12:04.345Z,100864.53
2022-09-06T07:15:06.342Z,100871.47
2022-09-06T07:18:08.244Z,100859.81
2022-09-06T07:21:37.577Z,100862.63
2022-09-06T07:24:39.868Z,100857.97
2022-09-06T07:27:47.529Z,100848.28
2022-09-06T07:30:53.963Z,100847.69
2022-09-06T07:33:55.839Z,100842.16
2022-09-06T07:36:57.664Z,100844.69
2022-09-06T07:39:59.466Z,100847.38
2022-09-06T07:43:01.364Z,100843.34
2022-09-06T07:46:13.569Z,100842.16
2022-09-06T07:49:15.411Z,100854.19
2022-09-06T07:55:39.250Z,100864.63
2022-09-06T07:58:41.320Z,100860.50
2022-09-06T08:01:43.361Z,100854.13
2022-09-06T08:04:48.642Z,100854.31
2022-09-06T08:11:15.327Z,100847.50
2022-09-06T08:14:17.170Z,100848.88
2022-09-06T08:17:19.010Z,100859.69
2022-09-06T08:20:20.931Z,100851.44
2022-09-06T08:23:22.794Z,100847.19
2022-09-06T08:26:26.109Z,100839.66
2022-09-06T08:29:28.085Z,100849.50
2022-09-06T08:32:33.540Z,100858.63
2022-09-06T08:35:35.330Z,100862.19
2022-09-06T08:38:37.955Z,100864.69
2022-09-06T08:42:03.819Z,100864.78
2022-09-06T08:45:09.480Z,100872.66
2022-09-06T08:48:11.474Z,100870.91
2022-09-06T08:51:51.661Z,100859.25
2022-09-06T08:55:23.445Z,100851.06
2022-09-06T08:58:49.069Z,100842.38
2022-09-06T09:02:13.017Z,100844.72
2022-09-06T09:05:40.196Z,100848.09
2022-09-06T09:09:01.851Z,100848.75
2022-09-06T09:12:03.828Z,100843.00
2022-09-06T09:15:10.165Z,100835.97
2022-09-06T09:18:12.033Z,100826.69
2022-09-06T09:21:17.189Z,100826.41
2022-09-06T09:24:18.976Z,100835.53
2022-09-06T09:27:28.419Z,100823.41
2022-09-06T09:30:48.771Z,100822.69
2022-09-06T09:33:51.479Z,100811.69
2022-09-06T09:40:53.789Z,100808.47
2022-09-06T09:44:17.812Z,100812.81
2022-09-06T09:47:33.177Z,100814.19
2022-09-06T09:50:35.842Z,100807.97
2022-09-06T09:53:50.806Z,100804.19
2022-09-06T09:56:52.990Z,100797.13
2022-09-06T10:00:01.708Z,100789.53
2022-09-06T10:03:30.079Z,100788.94
2022-09-06T10:10:01.837Z,100792.78
2022-09-06T10:13:26.754Z,100792.09
2022-09-06T10:16:43.550Z,100785.75
2022-09-06T10:19:46.548Z,100789.31
2022-09-06T10:23:13.112Z,100791.22
2022-09-06T10:26:29.296Z,100786.47
2022-09-06T10:29:53.245Z,100785.69
2022-09-06T10:33:05.177Z,100778.63
2022-09-06T10:36:08.137Z,100770.06
2022-09-06T10:39:28.549Z,100776.81
2022-09-06T10:42:49.454Z,100767.72
2022-09-06T10:46:09.554Z,100765.06
2022-09-06T10:49:16.943Z,100761.34
2022-09-06T10:52:43.611Z,100762.19
2022-09-06T10:56:14.406Z,100757.19
2022-09-06T10:59:41.669Z,100763.47
2022-09-06T11:06:40.335Z,100753.59
2022-09-06T11:09:46.275Z,100749.78
2022-09-06T11:13:10.016Z,100752.75
2022-09-06T11:16:32.737Z,100754.59
2022-09-06T11:20:13.253Z,100754.75
2022-09-06T11:23:39.740Z,100754.38
2022-09-06T11:27:11.856Z,100747.03
2022-09-06T11:30:15.798Z,100751.84
2022-09-06T11:33:27.660Z,100753.69
2022-09-06T11:36:46.692Z,100744.56
2022-09-06T11:40:32.371Z,100748.22
2022-09-06T11:43:51.764Z,100739.31
2022-09-06T11:47:01.065Z,100739.75
2022-09-06T11:50:53.946Z,100737.91
2022-09-06T11:54:06.582Z,100727.75
2022-09-06T11:57:08.213Z,100730.16
2022-09-06T12:00:19.880Z,100733.00
2022-09-06T12:04:06.171Z,100730.31
2022-09-06T12:07:11.803Z,100736.25
2022-09-06T12:10:31.814Z,100721.75
2022-09-06T12:13:45.712Z,100728.59
2022-09-06T12:17:11.562Z,100729.31
2022-09-06T12:20:48.118Z,100726.22
2022-09-06T12:23:49.985Z,100725.16
2022-09-06T12:27:08.410Z,100723.97
2022-09-06T12:30:13.747Z,100723.53
2022-09-06T12:33:27.696Z,100718.53
2022-09-06T12:36:33.176Z,100711.53
2022-09-06T12:39:37.742Z,100714.59
2022-09-06T12:42:47.715Z,100712.84
2022-09-06T12:45:52.511Z,100710.13
2022-09-06T12:49:12.276Z,100702.38
2022-09-06T12:52:19.043Z,100705.88
2022-09-06T12:55:38.739Z,100703.34
2022-09-06T12:58:41.002Z,100697.88
2022-09-06T13:02:13.823Z,100694.94
2022-09-06T13:05:15.748Z,100691.59
2022-09-06T13:08:39.973Z,100688.78
2022-09-06T13:11:52.225Z,100685.19
2022-09-06T13:15:01.119Z,100683.13
2022-09-06T13:18:23.998Z,100677.59
2022-09-06T13:21:33.182Z,100674.94
2022-09-06T13:24:35.376Z,100670.97
2022-09-06T13:27:37.719Z,100661.59
2022-09-06T13:30:49.541Z,100661.56
2022-09-06T13:33:59.550Z,100652.88
2022-09-06T13:37:10.749Z,100653.81
2022-09-06T13:41:16.111Z,100649.25
2022-09-06T13:44:21.981Z,100644.91
2022-09-06T13:47:28.849Z,100639.44
2022-09-06T13:50:30.790Z,100630.34
2022-09-06T13:53:33.935Z,100635.84
2022-09-06T13:56:39.290Z,100638.47
2022-09-06T13:59:42.829Z,100628.19
2022-09-06T14:02:46.618Z,100621.91
2022-09-06T14:05:48.936Z,100626.34
2022-09-06T14:09:06.303Z,100615.28
2022-09-06T14:12:10.209Z,100627.97
2022-09-06T14:15:13.435Z,100623.50
2022-09-06T14:18:16.521Z,100618.31
2022-09-06T14:21:18.244Z,100620.50
2022-09-06T14:24:20.154Z,100620.63
2022-09-06T14:27:22.350Z,100604.56
2022-09-06T14:30:24.435Z,100608.28
2022-09-06T14:33:26.164Z,100609.47
2022-09-06T14:36:29.823Z,100603.38
2022-09-06T14:39:31.613Z,100607.63
2022-09-06T14:42:33.466Z,100607.75
2022-09-06T14:45:35.886Z,100604.25
2022-09-06T14:48:41.623Z,100594.09
2022-09-06T14:51:45.958Z,100597.06
2022-09-06T14:54:47.956Z,100591.22
2022-09-06T14:57:50.193Z,100581.56
2022-09-06T15:00:52.820Z,100587.50
2022-09-06T15:04:00.133Z,100583.22
2022-09-06T15:07:02.056Z,100583.81
2022-09-06T15:10:05.036Z,100579.97
2022-09-06T15:13:06.770Z,100584.00
2022-09-06T15:16:10.465Z,100591.63
2022-09-06T15:19:13.097Z,100584.97
2022-09-06T15:22:14.730Z,100572.84
2022-09-06T15:25:16.743Z,100574.06
2022-09-06T15:28:19.764Z,100569.13
2022-09-06T15:31:21.727Z,100564.53
2022-09-06T15:34:25.141Z,100559.50
2022-09-06T15:37:27.053Z,100552.53
2022-09-06T15:40:28.825Z,100557.31
2022-09-06T15:43:32.988Z,100547.88
2022-09-06T15:46:34.641Z,100539.81
2022-09-06T15:49:37.418Z,100540.63
2022-09-06T15:52:39.396Z,100541.13
2022-09-06T15:55:59.928Z,100533.06
2022-09-06T15:59:01.955Z,100530.56
2022-09-06T16:02:03.839Z,100529.47
2022-09-06T16:05:06.353Z,100526.38
2022-09-06T16:08:08.374Z,100532.03
2022-09-06T16:11:13.871Z,100522.03
2022-09-06T16:14:16.726Z,100519.44
2022-09-06T16:17:18.456Z,100513.75
2022-09-06T16:20:20.394Z,100507.66
2022-09-06T16:23:22.751Z,100505.09
2022-09-06T16:26:26.952Z,100506.44
2022-09-06T16:29:28.739Z,100500.22
2022-09-06T16:32:30.678Z,100491.72
2022-09-06T16:35:32.532Z,100492.00
2022-09-06T16:38:35.075Z,100489.56
2022-09-06T16:41:40.861Z,100487.91
2022-09-06T16:44:43.201Z,100488.28
2022-09-06T16:47:46.725Z,100487.94
2022-09-06T16:50:48.709Z,100489.47
2022-09-06T16:53:51.980Z,100476.53
2022-09-06T16:56:54.101Z,100478.84
2022-09-06T16:59:55.866Z,100479.28
2022-09-06T17:02:58.751Z,100472.25
2022-09-06T17:06:00.651Z,100475.06
2022-09-06T17:09:02.441Z,100474.97
2022-09-06T17:12:04.921Z,100471.84
2022-09-06T17:15:07.405Z,100476.88
2022-09-06T17:18:09.149Z,100479.88
2022-09-06T17:21:11.602Z,100484.00
2022-09-06T17:24:13.538Z,100483.59
2022-09-06T17:27:15.993Z,100485.56
2022-09-06T17:30:17.855Z,100484.25
2022-09-06T17:33:21.233Z,100494.75
2022-09-06T17:36:25.178Z,100497.69
2022-09-06T17:39:26.936Z,100496.97
2022-09-06T17:42:31.779Z,100496.19
2022-09-06T17:45:43.009Z,100502.72
2022-09-06T17:48:44.813Z,100508.44
2022-09-06T17:51:47.260Z,100509.84
2022-09-06T17:54:49.308Z,100514.06
2022-09-06T17:57:50.999Z,100518.94
2022-09-06T18:00:52.945Z,100514.03
2022-09-06T18:03:54.733Z,100514.59
2022-09-06T18:06:56.447Z,100520.00
2022-09-06T18:09:58.698Z,100513.25
2022-09-06T18:13:00.372Z,100510.97
2022-09-06T18:16:03.639Z,100512.16
2022-09-06T18:19:07.647Z,100513.31
2022-09-06T18:22:09.638Z,100512.84
2022-09-06T18:25:11.427Z,100524.97
2022-09-06T18:28:13.152Z,100517.19
2022-09-06T18:31:18.312Z,100524.88
2022-09-06T18:34:20.103Z,100517.09
2022-09-06T18:37:21.985Z,100517.25
2022-09-06T18:40:23.631Z,100521.81
2022-09-06T18:43:31.966Z,100518.13
2022-09-06T18:46:36.262Z,100512.63
2022-09-06T18:49:43.220Z,100513.19
2022-09-06T18:52:45.606Z,100520.69
2022-09-06T18:55:51.788Z,100520.59
2022-09-06T18:59:02.087Z,100530.06
2022-09-06T19:02:04.162Z,100520.50
2022-09-06T19:05:06.341Z,100525.31
2022-09-06T19:08:08.054Z,100527.50
2022-09-06T19:11:17.099Z,100523.38
2022-09-06T19:14:19.148Z,100526.91
2022-09-06T19:17:21.020Z,100527.81
2022-09-06T19:20:23.586Z,100521.03
2022-09-06T19:23:26.860Z,100518.53
2022-09-06T19:26:31.622Z,100525.53
2022-09-06T19:29:33.705Z,100527.25
2022-09-06T19:32:35.673Z,100528.00
2022-09-06T19:35:43.745Z,100522.66
2022-09-06T19:39:05.003Z,100531.47
2022-09-06T19:42:07.474Z,100522.03
2022-09-06T19:45:09.699Z,100520.31
2022-09-06T19:48:11.734Z,100524.50
2022-09-06T19:51:20.232Z,100521.94
2022-09-06T19:54:22.172Z,100529.06
2022-09-06T19:57:23.815Z,100516.84
2022-09-06T20:00:27.164Z,100520.16
2022-09-06T20:03:29.031Z,100518.25
2022-09-06T20:06:31.067Z,100508.28
2022-09-06T20:09:33.054Z,100509.84
2022-09-06T20:12:34.937Z,100511.16
2022-09-06T20:15:37.717Z,100506.66
2022-09-06T20:18:40.253Z,100502.72
2022-09-06T20:21:42.645Z,100500.63
2022-09-06T20:24:44.527Z,100504.44
2022-09-06T20:27:46.191Z,100499.72
2022-09-06T20:30:49.123Z,100494.00
2022-09-06T20:33:50.865Z,100495.00
2022-09-06T20:36:52.440Z,100486.31
2022-09-06T20:39:55.687Z,100478.81
2022-09-06T20:42:57.672Z,100479.81
2022-09-06T20:46:00.369Z,100481.78
2022-09-06T20:49:05.457Z,100471.66
2022-09-06T20:52:07.415Z,100471.00
2022-09-06T20:55:10.001Z,100463.31
2022-09-06T20:58:11.786Z,100461.69
2022-09-06T21:01:16.018Z,100462.66
2022-09-06T21:04:17.742Z,100467.25
2022-09-06T21:07:19.476Z,100460.38
2022-09-06T21:10:22.297Z,100447.41
2022-09-06T21:13:25.389Z,100438.75
2022-09-06T21:16:29.144Z,100437.94
2022-09-06T21:19:31.093Z,100433.69
2022-09-06T21:22:33.153Z,100447.78
2022-09-06T21:25:36.184Z,100450.25
2022-09-06T21:28:40.942Z,100456.47
2022-09-06T21:31:42.990Z,100456.66
2022-09-06T21:34:44.651Z,100468.31
2022-09-06T21:37:46.556Z,100466.03
2022-09-06T21:40:48.654Z,100469.00
2022-09-06T21:43:58.425Z,100460.66
2022-09-06T21:47:00.595Z,100458.56
2022-09-06T21:50:02.330Z,100445.81
2022-09-06T21:53:03.869Z,100448.81
2022-09-06T21:56:06.583Z,100443.22
2022-09-06T21:59:08.898Z,100438.34
2022-09-06T22:02:11.121Z,100428.06
2022-09-06T22:05:12.960Z,100419.34
2022-09-06T22:08:14.737Z,100424.78
2022-09-06T22:11:26.281Z,100430.84
2022-09-06T22:14:28.132Z,100432.81
2022-09-06T22:17:29.876Z,100427.13
2022-09-06T22:20:31.721Z,100435.94
2022-09-06T22:23:33.886Z,100444.97
2022-09-06T22:26:37.142Z,100440.53
2022-09-06T22:29:38.955Z,100432.69
2022-09-06T22:32:41.614Z,100433.53
2022-09-06T22:35:43.469Z,100432.69
2022-09-06T22:38:45.085Z,100435.31
2022-09-06T22:41:47.086Z,100425.66
2022-09-06T22:44:49.823Z,100427.13
2022-09-06T22:47:51.606Z,100421.69
2022-09-06T22:50:53.374Z,100422.34
2022-09-06T22:53:55.355Z,100421.34
2022-09-06T22:56:57.606Z,100415.13
2022-09-06T23:00:00.296Z,100412.50
2022-09-06T23:03:02.006Z,100416.44
2022-09-06T23:06:04.188Z,100409.75
2022-09-06T23:09:06.502Z,100409.28
2022-09-06T23:12:08.336Z,100403.41
2022-09-06T23:15:10.063Z,100390.81
2022-09-06T23:18:12.218Z,100395.78
2022-09-06T23:21:23.519Z,100391.03
2022-09-06T23:24:25.997Z,100390.41
2022-09-06T23:27:27.892Z,100390.06
2022-09-06T23:30:30.153Z,100385.50
2022-09-06T23:33:35.074Z,100382.44
2022-09-06T23:36:36.925Z,100384.75
2022-09-06T23:39:38.707Z,100384.28
2022-09-06T23:42:40.392Z,100381.84
2022-09-06T23:45:42.321Z,100380.56
2022-09-06T23:48:44.354Z,100369.63
2022-09-06T23:51:46.233Z,100356.19
2022-09-06T23:54:48.029Z,100348.66
2022-09-06T23:57:51.150Z,100362.91
